Time;durP1;ratioP1;P1;durP2;ratioP2;P2;SDS_P1;SDS_P2;PMS_P1;PMS_P2;Temp;Humidity;BMP_temperature;BMP_pressure;BME280_temperature;BME280_humidity;BME280_pressure;Samples;Min_cycle;Max_cycle;Signal;HPM_P1;HPM_P2
2023/10/26 00:00:31;;;;;;;4.27;2.00;;;;;;;;;;5091984;28;20067;-73
2023/10/26 00:02:57;;;;;;;4.97;2.03;;;;;;;;;;5091535;28;20096;-73
2023/10/26 00:05:23;;;;;;;3.33;2.10;;;;;;;;;;5073691;28;20502;-74
2023/10/26 00:07:49;;;;;;;4.57;2.20;;;;;;;;;;5090487;28;20070;-73
2023/10/26 00:10:15;;;;;;;5.40;2.47;;;;;;;;;;5074378;28;20048;-72
2023/10/26 00:12:41;;;;;;;2.20;1.97;;;;;;;;;;5057168;28;20047;-72
2023/10/26 00:15:07;;;;;;;3.70;1.97;;;;;;;;;;5056930;28;20028;-73
2023/10/26 00:17:32;;;;;;;2.70;2.10;;;;;;;;;;5056990;28;20428;-72
2023/10/26 00:19:58;;;;;;;4.03;2.37;;;;;;;;;;5090094;28;20064;-75
2023/10/26 00:22:24;;;;;;;5.27;2.50;;;;;;;;;;5073386;28;20040;-71
2023/10/26 00:24:50;;;;;;;3.73;1.93;;;;;;;;;;5091014;28;20042;-70
2023/10/26 00:27:16;;;;;;;4.47;2.80;;;;;;;;;;5090647;28;20119;-72
2023/10/26 00:29:41;;;;;;;3.63;2.10;;;;;;;;;;5073568;28;20130;-73
2023/10/26 00:32:07;;;;;;;4.23;1.97;;;;;;;;;;5056694;28;20032;-73
2023/10/26 00:34:33;;;;;;;2.90;1.93;;;;;;;;;;5090415;28;20039;-72
2023/10/26 00:36:59;;;;;;;2.77;2.00;;;;;;;;;;5090783;28;20028;-73
2023/10/26 00:39:25;;;;;;;3.80;2.27;;;;;;;;;;5090415;28;20039;-72
2023/10/26 00:41:52;;;;;;;8.00;2.97;;;;;;;;;;5076512;28;20063;-73
2023/10/26 00:44:18;;;;;;;3.23;2.50;;;;;;;;;;5094710;28;20065;-72
2023/10/26 00:46:44;;;;;;;2.87;2.50;;;;;;;;;;5093699;28;20044;-73
2023/10/26 00:49:12;;;;;;;8.30;3.20;;;;;;;;;;5093997;28;20040;-73
2023/10/26 00:51:40;;;;;;;9.53;2.97;;;;;;;;;;5077122;28;20050;-73
2023/10/26 00:54:06;;;;;;;5.60;2.30;;;;;;;;;;5095236;28;20078;-74
2023/10/26 00:56:35;;;;;;;4.23;2.50;;;;;;;;;;5093734;28;20123;-73
2023/10/26 00:59:03;;;;;;;3.33;2.30;;;;;;;;;;5076556;28;20047;-73
2023/10/26 01:01:32;;;;;;;4.77;2.73;;;;;;;;;;5060459;28;20032;-73
2023/10/26 01:03:59;;;;;;;3.00;2.43;;;;;;;;;;5076257;28;20048;-73
2023/10/26 01:06:24;;;;;;;3.33;2.50;;;;;;;;;;5093631;28;20470;-74
2023/10/26 01:08:50;;;;;;;3.17;2.40;;;;;;;;;;5076388;28;20089;-73
2023/10/26 01:11:16;;;;;;;7.30;2.73;;;;;;;;;;5060651;28;20123;-73
2023/10/26 01:13:42;;;;;;;3.23;2.47;;;;;;;;;;5060614;28;20055;-72
2023/10/26 01:16:08;;;;;;;2.67;2.40;;;;;;;;;;5094045;28;20036;-72
2023/10/26 01:18:33;;;;;;;5.17;2.70;;;;;;;;;;5076428;28;20088;-73
2023/10/26 01:20:59;;;;;;;6.10;2.50;;;;;;;;;;5093001;28;20032;-74
2023/10/26 01:23:26;;;;;;;3.20;2.57;;;;;;;;;;5059716;28;20054;-73
2023/10/26 01:25:52;;;;;;;7.47;3.37;;;;;;;;;;5092798;28;20052;-72
2023/10/26 01:28:18;;;;;;;2.60;2.40;;;;;;;;;;5093511;28;20344;-73
2023/10/26 01:30:44;;;;;;;4.17;2.83;;;;;;;;;;5093067;28;20057;-74
2023/10/26 01:33:11;;;;;;;5.53;2.73;;;;;;;;;;5076068;28;20068;-73
2023/10/26 01:35:43;;;;;;;3.07;2.40;;;;;;;;;;5059433;28;20036;-73
2023/10/26 01:38:09;;;;;;;4.17;2.23;;;;;;;;;;5076233;28;20454;-74
2023/10/26 01:40:35;;;;;;;2.97;2.63;;;;;;;;;;5076006;28;20034;-74
2023/10/26 01:43:00;;;;;;;6.10;3.17;;;;;;;;;;5093052;28;20047;-74
2023/10/26 01:45:27;;;;;;;4.87;3.00;;;;;;;;;;5059672;28;20039;-74
2023/10/26 01:47:54;;;;;;;5.47;2.97;;;;;;;;;;5075500;28;20394;-73
2023/10/26 01:50:20;;;;;;;4.27;3.00;;;;;;;;;;5076039;28;20060;-75
2023/10/26 01:52:45;;;;;;;4.13;2.87;;;;;;;;;;5093004;28;20410;-75
2023/10/26 01:55:12;;;;;;;3.57;2.70;;;;;;;;;;5093744;28;20036;-75
2023/10/26 01:57:37;;;;;;;5.13;2.80;;;;;;;;;;5092756;28;20047;-75
2023/10/26 02:00:03;;;;;;;6.67;3.00;;;;;;;;;;5060377;28;20040;-75
2023/10/26 02:02:38;;;;;;;4.53;2.97;;;;;;;;;;5094925;28;20549;-74
2023/10/26 02:05:03;;;;;;;8.30;3.50;;;;;;;;;;5061092;28;20075;-74
2023/10/26 02:07:29;;;;;;;6.10;2.90;;;;;;;;;;5096283;28;20161;-75
2023/10/26 02:09:56;;;;;;;4.47;3.00;;;;;;;;;;5061288;28;20458;-75
2023/10/26 02:12:22;;;;;;;6.97;3.77;;;;;;;;;;5093545;28;20489;-72
2023/10/26 02:14:48;;;;;;;5.20;3.27;;;;;;;;;;5093516;28;20032;-74
2023/10/26 02:17:16;;;;;;;5.33;3.20;;;;;;;;;;5092610;28;20039;-75
2023/10/26 02:19:42;;;;;;;3.30;3.00;;;;;;;;;;5059905;28;20425;-74
2023/10/26 02:22:08;;;;;;;4.20;2.83;;;;;;;;;;5095439;28;20028;-74
2023/10/26 02:24:33;;;;;;;4.23;2.87;;;;;;;;;;5112387;28;20569;-75
2023/10/26 02:27:00;;;;;;;3.53;3.20;;;;;;;;;;5112212;28;20062;-75
2023/10/26 02:29:25;;;;;;;3.87;3.07;;;;;;;;;;5096105;28;20507;-74
2023/10/26 02:31:51;;;;;;;4.13;2.77;;;;;;;;;;5096679;28;20031;-73
2023/10/26 02:34:16;;;;;;;3.40;3.10;;;;;;;;;;5095304;28;20063;-73
2023/10/26 02:36:42;;;;;;;6.07;2.73;;;;;;;;;;5098516;28;20032;-75
2023/10/26 02:39:08;;;;;;;5.37;3.80;;;;;;;;;;5060094;28;20386;-75
2023/10/26 02:41:34;;;;;;;3.10;2.80;;;;;;;;;;5062376;28;20032;-75
2023/10/26 02:44:00;;;;;;;6.47;2.60;;;;;;;;;;5086212;28;20493;-73
2023/10/26 02:46:26;;;;;;;3.30;2.77;;;;;;;;;;5083191;28;20036;-72
2023/10/26 02:48:52;;;;;;;3.40;2.50;;;;;;;;;;5087002;28;20085;-74
2023/10/26 02:51:22;;;;;;;3.07;2.50;;;;;;;;;;5054777;28;20490;-74
2023/10/26 02:53:49;;;;;;;2.63;2.30;;;;;;;;;;5064868;28;20094;-73
2023/10/26 02:56:15;;;;;;;2.27;2.03;;;;;;;;;;5055577;28;20474;-74
2023/10/26 02:58:41;;;;;;;4.93;2.13;;;;;;;;;;5054475;28;20047;-74
2023/10/26 03:01:07;;;;;;;9.53;3.50;;;;;;;;;;5030585;28;20036;-77
2023/10/26 03:03:33;;;;;;;3.13;1.80;;;;;;;;;;5055385;28;20452;-71
2023/10/26 03:06:00;;;;;;;2.53;2.10;;;;;;;;;;5056334;28;20344;-74
2023/10/26 03:08:27;;;;;;;2.60;1.70;;;;;;;;;;5070824;28;20035;-73
2023/10/26 03:10:53;;;;;;;3.30;1.60;;;;;;;;;;5039536;28;20169;-73
2023/10/26 03:13:19;;;;;;;3.90;1.97;;;;;;;;;;5046322;28;20032;-72
2023/10/26 03:15:57;;;;;;;6.00;1.73;;;;;;;;;;5071656;28;20024;-76
2023/10/26 03:18:26;;;;;;;;;;;;;;;;;;5091901;28;20403;-79
2023/10/26 03:20:53;;;;;;;2.57;1.40;;;;;;;;;;5064876;28;19958;-76
2023/10/26 03:23:19;;;;;;;3.20;1.40;;;;;;;;;;5086272;28;20040;-81
2023/10/26 03:25:48;;;;;;;6.83;1.90;;;;;;;;;;5086507;28;20051;-77
2023/10/26 03:28:14;;;;;;;4.17;1.90;;;;;;;;;;5069414;28;20040;-78
2023/10/26 03:30:40;;;;;;;5.73;1.93;;;;;;;;;;5086067;28;20102;-75
2023/10/26 03:33:07;;;;;;;3.23;1.50;;;;;;;;;;5085218;28;20244;-79
2023/10/26 03:35:33;;;;;;;4.10;2.00;;;;;;;;;;5077424;28;20044;-77
2023/10/26 03:37:58;;;;;;;4.90;1.70;;;;;;;;;;5054793;28;20032;-72
2023/10/26 03:40:24;;;;;;;3.83;1.70;;;;;;;;;;5056191;28;20048;-73
2023/10/26 03:42:50;;;;;;;3.77;2.00;;;;;;;;;;5089777;28;20094;-72
2023/10/26 03:45:16;;;;;;;2.57;1.60;;;;;;;;;;5054000;28;20043;-71
2023/10/26 03:47:43;;;;;;;3.17;1.90;;;;;;;;;;5038248;28;20127;-71
2023/10/26 03:50:09;;;;;;;3.67;1.90;;;;;;;;;;5071802;28;20040;-71
2023/10/26 03:52:36;;;;;;;3.53;2.10;;;;;;;;;;5038925;28;20036;-71
2023/10/26 03:55:02;;;;;;;3.43;2.07;;;;;;;;;;5072608;28;20032;-72
2023/10/26 03:57:29;;;;;;;2.73;1.80;;;;;;;;;;5070260;28;20032;-70
2023/10/26 03:59:54;;;;;;;2.60;1.80;;;;;;;;;;5057381;28;20096;-70
2023/10/26 04:02:20;;;;;;;3.30;2.10;;;;;;;;;;5073674;28;20481;-71
2023/10/26 04:04:49;;;;;;;5.27;2.13;;;;;;;;;;5090631;28;20060;-71
2023/10/26 04:07:15;;;;;;;3.13;2.03;;;;;;;;;;5074097;28;20069;-71
2023/10/26 04:09:41;;;;;;;3.23;1.90;;;;;;;;;;5057134;28;20040;-70
2023/10/26 04:12:07;;;;;;;5.77;2.20;;;;;;;;;;5074013;28;20028;-70
2023/10/26 04:14:34;;;;;;;3.40;2.50;;;;;;;;;;5058158;28;20036;-70
2023/10/26 04:17:00;;;;;;;4.47;2.33;;;;;;;;;;5077899;28;20115;-70
2023/10/26 04:19:26;;;;;;;4.20;2.60;;;;;;;;;;5077660;28;20126;-70
2023/10/26 04:21:53;;;;;;;3.47;2.40;;;;;;;;;;5077473;28;20077;-71
2023/10/26 04:24:20;;;;;;;5.97;2.80;;;;;;;;;;5060808;28;20036;-70
2023/10/26 04:26:46;;;;;;;4.43;2.83;;;;;;;;;;5077458;28;20048;-70
2023/10/26 04:29:13;;;;;;;4.17;2.60;;;;;;;;;;5077814;28;20039;-72
2023/10/26 04:31:38;;;;;;;4.00;2.80;;;;;;;;;;5077283;28;20032;-73
2023/10/26 04:34:04;;;;;;;3.77;2.53;;;;;;;;;;5077409;28;20044;-72
2023/10/26 04:36:30;;;;;;;4.33;3.03;;;;;;;;;;5077594;28;20039;-71
2023/10/26 04:38:56;;;;;;;9.00;3.00;;;;;;;;;;5078317;28;20141;-72
2023/10/26 04:41:21;;;;;;;8.10;3.20;;;;;;;;;;5060774;28;20028;-73
2023/10/26 04:43:47;;;;;;;7.50;3.10;;;;;;;;;;5060864;28;20031;-71
2023/10/26 04:46:13;;;;;;;5.97;3.20;;;;;;;;;;5077274;28;20048;-71
2023/10/26 04:48:44;;;;;;;4.03;3.30;;;;;;;;;;5093915;28;20036;-71
2023/10/26 04:51:10;;;;;;;9.10;3.10;;;;;;;;;;5077489;28;20395;-71
2023/10/26 04:53:36;;;;;;;5.97;3.40;;;;;;;;;;5094269;28;20036;-71
2023/10/26 04:56:02;;;;;;;5.13;2.77;;;;;;;;;;5078153;28;20054;-71
2023/10/26 04:58:28;;;;;;;4.30;2.70;;;;;;;;;;5078490;28;20036;-72
2023/10/26 05:00:54;;;;;;;5.07;3.40;;;;;;;;;;5077389;28;20028;-71
2023/10/26 05:03:20;;;;;;;6.03;2.90;;;;;;;;;;5078296;28;20113;-72
2023/10/26 05:05:47;;;;;;;4.50;2.97;;;;;;;;;;5061987;28;20505;-71
2023/10/26 05:08:12;;;;;;;3.77;2.73;;;;;;;;;;5078837;28;20042;-72
2023/10/26 05:10:38;;;;;;;7.10;2.47;;;;;;;;;;5062212;28;20024;-71
2023/10/26 05:13:04;;;;;;;5.90;3.20;;;;;;;;;;5060936;28;20036;-71
2023/10/26 05:15:29;;;;;;;7.77;2.80;;;;;;;;;;5075928;28;20355;-71
2023/10/26 05:17:55;;;;;;;7.27;3.37;;;;;;;;;;5061255;28;20473;-71
2023/10/26 05:20:21;;;;;;;10.57;3.13;;;;;;;;;;5076226;28;20032;-71
2023/10/26 05:22:47;;;;;;;5.50;2.97;;;;;;;;;;5092699;28;20051;-71
2023/10/26 05:25:13;;;;;;;7.23;3.47;;;;;;;;;;5094379;28;20047;-71
2023/10/26 05:27:39;;;;;;;5.47;3.37;;;;;;;;;;5075992;28;20059;-70
2023/10/26 05:30:05;;;;;;;4.73;2.80;;;;;;;;;;5076498;28;20504;-71
2023/10/26 05:32:31;;;;;;;10.33;3.30;;;;;;;;;;5059728;28;20063;-71
2023/10/26 05:34:57;;;;;;;6.07;3.50;;;;;;;;;;5060293;28;20070;-71
2023/10/26 05:37:23;;;;;;;7.17;2.83;;;;;;;;;;5060378;28;20056;-71
2023/10/26 05:39:48;;;;;;;6.40;3.20;;;;;;;;;;5077156;28;20028;-71
2023/10/26 05:42:14;;;;;;;8.97;2.53;;;;;;;;;;5094845;28;20068;-71
2023/10/26 05:44:39;;;;;;;9.23;3.20;;;;;;;;;;5076950;28;20122;-71
2023/10/26 05:47:05;;;;;;;5.40;2.60;;;;;;;;;;5093491;28;20478;-70
2023/10/26 05:49:31;;;;;;;5.40;2.60;;;;;;;;;;5061558;28;20028;-71
2023/10/26 05:52:00;;;;;;;5.10;2.77;;;;;;;;;;5061003;28;20047;-72
2023/10/26 05:54:26;;;;;;;11.20;2.70;;;;;;;;;;5094552;28;20458;-71
2023/10/26 05:56:52;;;;;;;8.33;2.20;;;;;;;;;;5061117;28;20032;-71
2023/10/26 05:59:18;;;;;;;6.97;2.77;;;;;;;;;;5076840;28;20028;-71
2023/10/26 06:01:43;;;;;;;9.33;2.80;;;;;;;;;;5093100;28;20038;-71
2023/10/26 06:04:09;;;;;;;15.87;2.87;;;;;;;;;;5059579;28;20051;-72
2023/10/26 06:06:35;;;;;;;6.30;2.80;;;;;;;;;;5059577;28;20143;-71
2023/10/26 06:09:00;;;;;;;4.17;2.80;;;;;;;;;;5060781;28;20377;-72
2023/10/26 06:11:26;;;;;;;6.43;3.20;;;;;;;;;;5061259;28;20123;-71
2023/10/26 06:13:52;;;;;;;5.07;3.00;;;;;;;;;;5060711;28;20117;-71
2023/10/26 06:16:18;;;;;;;8.40;3.40;;;;;;;;;;5077588;28;20546;-71
2023/10/26 06:18:44;;;;;;;8.00;3.33;;;;;;;;;;5039413;28;20477;-72
2023/10/26 06:21:09;;;;;;;7.70;3.43;;;;;;;;;;5055335;28;20045;-71
2023/10/26 06:23:35;;;;;;;11.43;3.60;;;;;;;;;;5040361;28;20552;-71
2023/10/26 06:26:02;;;;;;;7.13;3.50;;;;;;;;;;5040711;28;20051;-72
2023/10/26 06:28:28;;;;;;;10.13;4.30;;;;;;;;;;5056883;28;20147;-72
2023/10/26 06:30:54;;;;;;;8.93;3.40;;;;;;;;;;5039619;28;20058;-71
2023/10/26 06:33:20;;;;;;;6.70;3.10;;;;;;;;;;5057944;28;20044;-72
2023/10/26 06:35:46;;;;;;;4.90;3.07;;;;;;;;;;5038538;28;20047;-72
2023/10/26 06:38:12;;;;;;;8.37;3.47;;;;;;;;;;5054754;28;20080;-71
2023/10/26 06:40:38;;;;;;;6.90;3.00;;;;;;;;;;5037549;28;20481;-71
2023/10/26 06:43:04;;;;;;;7.23;3.23;;;;;;;;;;5054319;28;20028;-71
2023/10/26 06:45:29;;;;;;;5.43;3.27;;;;;;;;;;5053393;28;20053;-72
2023/10/26 06:47:55;;;;;;;7.97;3.23;;;;;;;;;;5070382;28;20041;-71
2023/10/26 06:50:22;;;;;;;4.60;2.87;;;;;;;;;;5065682;28;20142;-71
2023/10/26 06:52:47;;;;;;;7.33;3.20;;;;;;;;;;5074879;28;20038;-71
2023/10/26 06:55:16;;;;;;;7.40;3.10;;;;;;;;;;5091399;28;20028;-71
2023/10/26 06:57:42;;;;;;;7.63;3.30;;;;;;;;;;5092709;28;20366;-71
2023/10/26 07:00:08;;;;;;;6.73;2.70;;;;;;;;;;5091299;28;20142;-71
2023/10/26 07:02:34;;;;;;;5.50;3.03;;;;;;;;;;5091542;28;20123;-71
2023/10/26 07:05:00;;;;;;;4.73;2.47;;;;;;;;;;5057639;28;20052;-71
2023/10/26 07:07:27;;;;;;;7.53;3.30;;;;;;;;;;5074600;28;20083;-71
2023/10/26 07:09:53;;;;;;;5.53;2.80;;;;;;;;;;5074501;28;20047;-72
2023/10/26 07:12:19;;;;;;;5.47;2.93;;;;;;;;;;5091026;28;20040;-72
2023/10/26 07:14:45;;;;;;;4.43;2.80;;;;;;;;;;5057595;28;20497;-71
2023/10/26 07:17:10;;;;;;;7.83;2.47;;;;;;;;;;5074013;28;20032;-71
2023/10/26 07:19:36;;;;;;;4.93;2.77;;;;;;;;;;5092543;28;20054;-71
2023/10/26 07:22:02;;;;;;;5.93;2.30;;;;;;;;;;5091145;28;20036;-72
2023/10/26 07:24:29;;;;;;;3.50;2.73;;;;;;;;;;5074472;28;20035;-71
2023/10/26 07:26:54;;;;;;;8.33;2.43;;;;;;;;;;5057810;28;20545;-72
2023/10/26 07:29:20;;;;;;;5.97;2.83;;;;;;;;;;5092474;28;20123;-71
2023/10/26 07:31:46;;;;;;;5.93;2.70;;;;;;;;;;5074350;28;20028;-71
2023/10/26 07:34:11;;;;;;;3.70;2.50;;;;;;;;;;5090859;28;20036;-70
2023/10/26 07:36:37;;;;;;;5.90;2.87;;;;;;;;;;5074430;28;20488;-71
2023/10/26 07:39:03;;;;;;;6.23;2.30;;;;;;;;;;5074225;28;20036;-72
2023/10/26 07:41:29;;;;;;;4.57;2.83;;;;;;;;;;5090610;28;20783;-71
2023/10/26 07:43:55;;;;;;;7.93;2.50;;;;;;;;;;5090812;28;20128;-72
2023/10/26 07:46:21;;;;;;;7.20;2.77;;;;;;;;;;5090555;28;20044;-71
2023/10/26 07:48:46;;;;;;;5.07;2.50;;;;;;;;;;5091736;28;20039;-71
2023/10/26 07:51:12;;;;;;;5.47;2.60;;;;;;;;;;5095781;28;20035;-72
2023/10/26 07:53:38;;;;;;;2.80;2.20;;;;;;;;;;5096221;28;20120;-71
2023/10/26 07:56:04;;;;;;;4.03;2.30;;;;;;;;;;5061884;28;20032;-72
2023/10/26 07:58:30;;;;;;;4.00;2.40;;;;;;;;;;5078671;28;20078;-71
2023/10/26 08:00:56;;;;;;;4.33;2.50;;;;;;;;;;5096563;28;20028;-71
2023/10/26 08:03:24;;;;;;;4.53;2.50;;;;;;;;;;5096062;28;20039;-72
2023/10/26 08:06:00;;;;;;;5.27;2.40;;;;;;;;;;5061356;28;20040;-71
2023/10/26 08:08:27;;;;;;;2.77;2.40;;;;;;;;;;5095013;28;20120;-71
2023/10/26 08:10:53;;;;;;;4.63;2.77;;;;;;;;;;5077791;28;20024;-71
2023/10/26 08:13:19;;;;;;;9.80;2.70;;;;;;;;;;5077702;28;20039;-72
2023/10/26 08:15:44;;;;;;;4.60;2.40;;;;;;;;;;5094421;28;20036;-72
2023/10/26 08:18:12;;;;;;;8.17;2.60;;;;;;;;;;5094372;28;20042;-72
2023/10/26 08:20:38;;;;;;;5.33;2.63;;;;;;;;;;5095557;28;20104;-72
2023/10/26 08:23:03;;;;;;;6.07;2.33;;;;;;;;;;5094356;28;20126;-71
2023/10/26 08:25:29;;;;;;;2.37;2.00;;;;;;;;;;5077287;28;20036;-72
2023/10/26 08:27:55;;;;;;;5.10;2.47;;;;;;;;;;5094350;28;20040;-72
2023/10/26 08:30:20;;;;;;;5.03;2.30;;;;;;;;;;5095200;28;20038;-72
2023/10/26 08:32:49;;;;;;;2.72;2.15;;;;;;;;;;5060430;28;20028;-72
2023/10/26 08:35:15;;;;;;;4.82;2.20;;;;;;;;;;5060505;28;20044;-72
2023/10/26 08:37:40;;;;;;;11.75;2.42;;;;;;;;;;5094230;28;20062;-72
2023/10/26 08:40:13;;;;;;;6.50;2.22;;;;;;;;;;5078336;28;20067;-72
2023/10/26 08:42:39;;;;;;;3.30;2.40;;;;;;;;;;5096813;28;20059;-72
2023/10/26 08:45:08;;;;;;;7.22;2.40;;;;;;;;;;5078132;28;20039;-72
2023/10/26 08:47:34;;;;;;;5.88;2.40;;;;;;;;;;5061227;28;20067;-72
2023/10/26 08:50:01;;;;;;;12.27;2.30;;;;;;;;;;5093874;28;20448;-72
2023/10/26 08:52:29;;;;;;;5.75;2.42;;;;;;;;;;5060762;28;20036;-72
2023/10/26 08:54:55;;;;;;;5.72;2.00;;;;;;;;;;5077302;28;20040;-72
2023/10/26 08:57:21;;;;;;;2.92;2.10;;;;;;;;;;5076758;28;20040;-71
2023/10/26 08:59:47;;;;;;;5.00;2.10;;;;;;;;;;5077059;28;20032;-72
2023/10/26 09:02:13;;;;;;;4.43;2.10;;;;;;;;;;5094152;28;20032;-72
2023/10/26 09:04:59;;;;;;;10.95;2.25;;;;;;;;;;5094086;28;20117;-73
2023/10/26 09:07:27;;;;;;;4.13;2.25;;;;;;;;;;5076933;28;20079;-72
2023/10/26 09:09:53;;;;;;;5.90;2.03;;;;;;;;;;5094254;28;20051;-72
2023/10/26 09:12:18;;;;;;;4.90;2.28;;;;;;;;;;5093282;28;20097;-72
2023/10/26 09:15:06;;;;;;;3.20;1.73;;;;;;;;;;5076591;28;20035;-73
2023/10/26 09:17:33;;;;;;;6.03;2.20;;;;;;;;;;5076278;28;20051;-72
2023/10/26 09:19:59;;;;;;;5.18;2.33;;;;;;;;;;5076615;28;20024;-72
2023/10/26 09:22:35;;;;;;;4.65;2.30;;;;;;;;;;5076373;28;20032;-72
2023/10/26 09:25:07;;;;;;;5.05;2.28;;;;;;;;;;5093252;28;20048;-72
2023/10/26 09:27:33;;;;;;;7.03;1.90;;;;;;;;;;5059624;28;20063;-72
2023/10/26 09:29:59;;;;;;;8.18;3.38;;;;;;;;;;5093396;28;20047;-72
2023/10/26 09:32:35;;;;;;;3.65;2.10;;;;;;;;;;5093186;28;20035;-71
2023/10/26 09:35:01;;;;;;;9.82;2.50;;;;;;;;;;5059683;28;20028;-72
2023/10/26 09:37:27;;;;;;;4.15;2.80;;;;;;;;;;5094357;28;20060;-73
2023/10/26 09:39:53;;;;;;;4.45;2.80;;;;;;;;;;5059644;28;20032;-72
2023/10/26 09:42:19;;;;;;;4.00;1.95;;;;;;;;;;5059145;28;20043;-72
2023/10/26 09:44:45;;;;;;;5.35;2.47;;;;;;;;;;5059437;28;20032;-72
2023/10/26 09:47:11;;;;;;;7.70;2.35;;;;;;;;;;5076151;28;20085;-73
2023/10/26 09:49:37;;;;;;;7.90;2.60;;;;;;;;;;5076404;28;20031;-72
2023/10/26 09:52:03;;;;;;;4.38;2.20;;;;;;;;;;5092991;28;20126;-72
2023/10/26 09:54:32;;;;;;;6.05;2.10;;;;;;;;;;5075946;28;20106;-72
2023/10/26 09:57:01;;;;;;;3.60;2.22;;;;;;;;;;5059118;28;20067;-72
2023/10/26 09:59:27;;;;;;;3.03;1.70;;;;;;;;;;5092512;28;20089;-72
2023/10/26 10:01:53;;;;;;;6.93;2.28;;;;;;;;;;5075534;28;20131;-72
2023/10/26 10:04:36;;;;;;;7.43;2.58;;;;;;;;;;5058999;28;20098;-72
2023/10/26 10:07:02;;;;;;;5.15;2.70;;;;;;;;;;5075379;28;20127;-72
2023/10/26 10:09:29;;;;;;;5.45;2.38;;;;;;;;;;5059039;28;20058;-73
2023/10/26 10:12:25;;;;;;;7.05;2.30;;;;;;;;;;5091700;28;20101;-72
2023/10/26 10:17:49;;;;;;;4.97;2.03;;;;;;;;;;5050866;28;20189;-73
2023/10/26 10:20:15;;;;;;;5.82;1.90;;;;;;;;;;5034587;28;20151;-73
2023/10/26 10:22:41;;;;;;;4.60;2.20;;;;;;;;;;5033854;28;20152;-73
2023/10/26 10:25:10;;;;;;;6.65;2.13;;;;;;;;;;5034349;28;20119;-73
2023/10/26 10:27:37;;;;;;;7.00;2.08;;;;;;;;;;5058161;28;20083;-72
2023/10/26 10:30:07;;;;;;;4.45;2.42;;;;;;;;;;5058305;28;20036;-72
2023/10/26 10:32:42;;;;;;;6.80;2.00;;;;;;;;;;5091756;28;20036;-73
2023/10/26 10:35:08;;;;;;;6.38;2.10;;;;;;;;;;5091591;28;20390;-72
2023/10/26 10:37:34;;;;;;;5.25;2.13;;;;;;;;;;5091398;28;20047;-73
2023/10/26 10:40:12;;;;;;;8.52;2.20;;;;;;;;;;5092542;28;20040;-72
2023/10/26 10:42:39;;;;;;;6.47;2.00;;;;;;;;;;5074861;28;20036;-73
2023/10/26 10:45:10;;;;;;;3.92;2.03;;;;;;;;;;5057667;28;20032;-72
2023/10/26 10:47:35;;;;;;;5.38;2.15;;;;;;;;;;5074599;28;20047;-72
2023/10/26 10:50:14;;;;;;;4.38;2.10;;;;;;;;;;5092200;28;20036;-72
2023/10/26 10:52:41;;;;;;;4.22;2.33;;;;;;;;;;5091270;28;20540;-72
2023/10/26 10:55:07;;;;;;;5.07;3.00;;;;;;;;;;5091235;28;20060;-72
2023/10/26 10:57:32;;;;;;;11.57;3.22;;;;;;;;;;5074063;28;20059;-73
2023/10/26 10:59:58;;;;;;;8.23;2.97;;;;;;;;;;5091218;28;20074;-73
2023/10/26 11:02:24;;;;;;;6.82;3.22;;;;;;;;;;5090923;28;20388;-72
2023/10/26 11:04:52;;;;;;;4.50;2.60;;;;;;;;;;5074375;28;20135;-73
2023/10/26 11:07:17;;;;;;;8.07;3.15;;;;;;;;;;5092333;28;20389;-73
2023/10/26 11:09:45;;;;;;;10.65;2.70;;;;;;;;;;5057596;28;20088;-73
2023/10/26 11:12:11;;;;;;;4.20;2.33;;;;;;;;;;5074125;28;20132;-73
2023/10/26 11:14:57;;;;;;;5.40;2.47;;;;;;;;;;5091159;28;20047;-73
2023/10/26 11:17:24;;;;;;;3.60;2.47;;;;;;;;;;5073752;28;20130;-73
2023/10/26 11:19:50;;;;;;;5.70;2.97;;;;;;;;;;5091919;28;20608;-72
2023/10/26 11:22:16;;;;;;;9.93;3.42;;;;;;;;;;5074498;28;20031;-72
2023/10/26 11:24:42;;;;;;;9.30;3.33;;;;;;;;;;5073351;28;20040;-72
2023/10/26 11:27:09;;;;;;;4.65;3.00;;;;;;;;;;5057583;28;20039;-73
2023/10/26 11:29:40;;;;;;;7.57;3.50;;;;;;;;;;5092160;28;20046;-72
2023/10/26 11:32:18;;;;;;;5.47;2.67;;;;;;;;;;5090913;28;20065;-72
2023/10/26 11:35:02;;;;;;;7.07;2.80;;;;;;;;;;5074194;28;20173;-72
2023/10/26 11:37:29;;;;;;;5.13;2.97;;;;;;;;;;5057702;28;20043;-72
2023/10/26 11:39:55;;;;;;;9.70;3.10;;;;;;;;;;5057247;28;20040;-72
2023/10/26 11:42:41;;;;;;;7.07;2.80;;;;;;;;;;5091043;28;20097;-73
2023/10/26 11:45:07;;;;;;;8.10;2.90;;;;;;;;;;5073725;28;20051;-73
2023/10/26 11:47:43;;;;;;;6.77;2.80;;;;;;;;;;5074181;28;20027;-72
2023/10/26 11:50:17;;;;;;;5.03;2.90;;;;;;;;;;5057408;28;20064;-73
2023/10/26 11:52:42;;;;;;;4.93;2.50;;;;;;;;;;5073688;28;20024;-72
2023/10/26 11:55:08;;;;;;;8.13;2.93;;;;;;;;;;5057477;28;20040;-72
2023/10/26 11:57:34;;;;;;;7.57;2.50;;;;;;;;;;5057444;28;20498;-72
2023/10/26 11:59:59;;;;;;;19.23;2.87;;;;;;;;;;5057155;28;20028;-72
2023/10/26 12:02:28;;;;;;;4.40;2.30;;;;;;;;;;5074010;28;20111;-71
2023/10/26 12:04:54;;;;;;;6.10;2.20;;;;;;;;;;5057305;28;20063;-72
2023/10/26 12:07:19;;;;;;;3.40;2.07;;;;;;;;;;5090913;28;20035;-69
2023/10/26 12:09:45;;;;;;;7.33;2.73;;;;;;;;;;5074751;28;20123;-71
2023/10/26 12:12:12;;;;;;;5.37;2.40;;;;;;;;;;5090389;28;20131;-71
2023/10/26 12:14:37;;;;;;;3.40;2.20;;;;;;;;;;5073803;28;20428;-70
2023/10/26 12:17:03;;;;;;;6.77;2.30;;;;;;;;;;5090467;28;20131;-71
2023/10/26 12:19:30;;;;;;;3.83;2.00;;;;;;;;;;5073787;28;20028;-70
2023/10/26 12:21:56;;;;;;;5.30;2.03;;;;;;;;;;5091780;28;20181;-70
2023/10/26 12:24:23;;;;;;;4.17;1.87;;;;;;;;;;5052936;28;20542;-70
2023/10/26 12:26:57;;;;;;;5.17;2.37;;;;;;;;;;5013040;28;20500;-71
2023/10/26 12:29:23;;;;;;;4.17;2.13;;;;;;;;;;5012146;28;20060;-71
2023/10/26 12:31:50;;;;;;;6.50;1.83;;;;;;;;;;5010884;28;20472;-71
2023/10/26 12:34:16;;;;;;;3.87;2.00;;;;;;;;;;5029159;28;20446;-70
2023/10/26 12:36:41;;;;;;;6.10;2.30;;;;;;;;;;4997102;28;20038;-70
2023/10/26 12:39:07;;;;;;;6.00;2.40;;;;;;;;;;5033317;28;20053;-70
2023/10/26 12:41:33;;;;;;;5.30;2.10;;;;;;;;;;5032827;28;20163;-71
2023/10/26 12:43:58;;;;;;;3.63;1.90;;;;;;;;;;4999833;28;20177;-70
2023/10/26 12:46:24;;;;;;;4.70;2.50;;;;;;;;;;4983871;28;20503;-70
2023/10/26 12:48:50;;;;;;;6.70;2.30;;;;;;;;;;5032579;28;20495;-70
2023/10/26 12:51:15;;;;;;;6.77;2.40;;;;;;;;;;5032513;28;20048;-71
2023/10/26 12:53:41;;;;;;;8.23;2.50;;;;;;;;;;5016206;28;20542;-71
2023/10/26 12:56:10;;;;;;;4.50;2.00;;;;;;;;;;5052255;28;20079;-71
2023/10/26 12:58:36;;;;;;;4.70;2.53;;;;;;;;;;5087170;28;20131;-71
2023/10/26 13:01:02;;;;;;;7.37;2.33;;;;;;;;;;5093640;28;20135;-71
2023/10/26 13:03:28;;;;;;;8.73;2.17;;;;;;;;;;5076752;28;20028;-70
2023/10/26 13:05:53;;;;;;;5.43;1.90;;;;;;;;;;5077358;28;20058;-70
2023/10/26 13:08:19;;;;;;;2.73;1.80;;;;;;;;;;5076961;28;20100;-70
2023/10/26 13:10:44;;;;;;;5.47;2.87;;;;;;;;;;5076618;28;20093;-70
2023/10/26 13:13:12;;;;;;;7.40;2.40;;;;;;;;;;5093667;28;20425;-70
2023/10/26 13:15:39;;;;;;;11.97;3.30;;;;;;;;;;5093944;28;20350;-70
2023/10/26 13:18:05;;;;;;;3.60;1.90;;;;;;;;;;5060358;28;20382;-71
2023/10/26 13:20:33;;;;;;;3.37;2.10;;;;;;;;;;5076711;28;20048;-70
2023/10/26 13:22:59;;;;;;;3.20;2.10;;;;;;;;;;5093624;28;20486;-71
2023/10/26 13:25:26;;;;;;;10.67;2.60;;;;;;;;;;5059943;28;20139;-70
2023/10/26 13:27:52;;;;;;;5.27;2.47;;;;;;;;;;5059546;28;20497;-70
2023/10/26 13:30:18;;;;;;;4.53;2.03;;;;;;;;;;5059597;28;20040;-71
2023/10/26 13:32:44;;;;;;;3.20;2.20;;;;;;;;;;5076382;28;20032;-70
2023/10/26 13:35:10;;;;;;;4.13;2.40;;;;;;;;;;5076025;28;20054;-71
2023/10/26 13:37:36;;;;;;;5.13;2.47;;;;;;;;;;5058842;28;20051;-70
2023/10/26 13:40:03;;;;;;;4.93;2.30;;;;;;;;;;5093416;28;20032;-70
2023/10/26 13:42:29;;;;;;;3.63;2.33;;;;;;;;;;5059694;28;20054;-71
2023/10/26 13:44:57;;;;;;;8.03;2.20;;;;;;;;;;5059818;28;20089;-70
2023/10/26 13:47:22;;;;;;;5.63;2.47;;;;;;;;;;5093359;28;20070;-70
2023/10/26 13:49:48;;;;;;;6.57;2.67;;;;;;;;;;5060280;28;20032;-70
2023/10/26 13:52:15;;;;;;;4.43;2.67;;;;;;;;;;5076568;28;20433;-70
2023/10/26 13:54:42;;;;;;;9.60;2.90;;;;;;;;;;5060189;28;20035;-70
2023/10/26 13:57:11;;;;;;;12.70;2.60;;;;;;;;;;5059928;28;20568;-71
2023/10/26 13:59:39;;;;;;;5.90;2.70;;;;;;;;;;5076277;28;20105;-70
2023/10/26 14:02:04;;;;;;;4.87;2.80;;;;;;;;;;5093024;28;20169;-71
2023/10/26 14:04:33;;;;;;;6.03;2.87;;;;;;;;;;5059185;28;20093;-70
2023/10/26 14:06:59;;;;;;;7.37;2.90;;;;;;;;;;5092765;28;20051;-70
2023/10/26 14:09:27;;;;;;;6.63;2.27;;;;;;;;;;5075456;28;20028;-70
2023/10/26 14:11:53;;;;;;;5.53;2.20;;;;;;;;;;5075719;28;20144;-70
2023/10/26 14:14:20;;;;;;;6.50;2.03;;;;;;;;;;5058829;28;20059;-70
2023/10/26 14:16:45;;;;;;;5.50;2.50;;;;;;;;;;5075370;28;20478;-70
2023/10/26 14:19:11;;;;;;;8.17;2.40;;;;;;;;;;5058580;28;20085;-70
2023/10/26 14:21:39;;;;;;;3.73;2.17;;;;;;;;;;5057699;28;20040;-70
2023/10/26 14:24:10;;;;;;;5.33;2.17;;;;;;;;;;5092055;28;20042;-70
2023/10/26 14:26:37;;;;;;;5.90;1.90;;;;;;;;;;5058690;28;20055;-70
2023/10/26 14:29:03;;;;;;;7.40;2.20;;;;;;;;;;5091906;28;20047;-70
2023/10/26 14:31:30;;;;;;;8.70;2.67;;;;;;;;;;5092516;28;20474;-70
2023/10/26 14:33:55;;;;;;;3.33;1.90;;;;;;;;;;5074788;28;20482;-70
2023/10/26 14:36:21;;;;;;;4.47;2.00;;;;;;;;;;5075142;28;20044;-70
2023/10/26 14:38:49;;;;;;;2.47;1.87;;;;;;;;;;5058262;28;20588;-70
2023/10/26 14:41:15;;;;;;;4.10;2.07;;;;;;;;;;5058600;28;20036;-70
2023/10/26 14:43:41;;;;;;;2.83;1.60;;;;;;;;;;5075007;28;20040;-70